Time;durP1;ratioP1;P1;durP2;ratioP2;P2;SDS_P1;SDS_P2;PMS_P1;PMS_P2;Temp;Humidity;BMP_temperature;BMP_pressure;BME280_temperature;BME280_humidity;BME280_pressure;Samples;Min_cycle;Max_cycle;Signal;HPM_P1;HPM_P2
2022/10/26 00:00:25;;;;;;;;;1.50;1.50;;;;;;;;5054103;28;45425;-73
2022/10/26 00:02:50;;;;;;;;;2.75;0.00;;;;;;;;5059993;28;45484;-73
2022/10/26 00:05:15;;;;;;;;;1.75;1.75;;;;;;;;5060145;28;45355;-72
2022/10/26 00:07:41;;;;;;;;;3.25;1.75;;;;;;;;5059760;28;46533;-73
2022/10/26 00:10:06;;;;;;;;;2.75;1.75;;;;;;;;5059999;28;45407;-73
2022/10/26 00:12:31;;;;;;;;;1.00;1.00;;;;;;;;5060030;28;45421;-72
2022/10/26 00:14:57;;;;;;;;;1.75;1.75;;;;;;;;5057528;28;45391;-73
2022/10/26 00:17:22;;;;;;;;;3.75;1.75;;;;;;;;5039280;28;46624;-72
2022/10/26 00:19:47;;;;;;;;;0.75;0.75;;;;;;;;5039044;28;45703;-72
2022/10/26 00:22:12;;;;;;;;;1.50;1.50;;;;;;;;5039649;28;45284;-73
2022/10/26 00:24:37;;;;;;;;;2.00;2.00;;;;;;;;5039863;28;45388;-72
2022/10/26 00:27:03;;;;;;;;;1.75;1.75;;;;;;;;5039325;28;46564;-72
2022/10/26 00:29:28;;;;;;;;;3.25;2.00;;;;;;;;5038227;28;45174;-73
2022/10/26 00:31:53;;;;;;;;;2.75;2.75;;;;;;;;5039489;28;45515;-72
2022/10/26 00:34:18;;;;;;;;;0.25;0.00;;;;;;;;5039884;28;45352;-73
2022/10/26 00:36:43;;;;;;;;;2.00;1.75;;;;;;;;5049170;28;46312;-72
2022/10/26 00:39:11;;;;;;;;;2.25;2.25;;;;;;;;5059437;28;45216;-73
2022/10/26 00:41:36;;;;;;;;;2.00;1.75;;;;;;;;5059588;28;45319;-72
2022/10/26 00:44:21;;;;;;;;;1.75;1.00;;;;;;;;5059643;28;45306;-72
2022/10/26 00:46:46;;;;;;;;;3.75;2.00;;;;;;;;5059145;28;46263;-73
2022/10/26 00:49:14;;;;;;;;;2.25;1.75;;;;;;;;5059278;28;45387;-72
2022/10/26 00:51:45;;;;;;;;;1.50;1.50;;;;;;;;5059342;28;45319;-73
2022/10/26 00:54:12;;;;;;;;;1.00;1.00;;;;;;;;5043342;28;45433;-72
2022/10/26 00:56:38;;;;;;;;;2.75;1.25;;;;;;;;5041408;28;47056;-72
2022/10/26 00:59:05;;;;;;;;;1.00;1.00;;;;;;;;5073857;28;45686;-72
2022/10/26 01:01:32;;;;;;;;;2.25;2.25;;;;;;;;5057164;28;45391;-72
2022/10/26 01:03:58;;;;;;;;;3.00;1.00;;;;;;;;5072215;28;45391;-72
2022/10/26 01:06:23;;;;;;;;;1.25;1.25;;;;;;;;5066572;28;45254;-72
2022/10/26 01:08:49;;;;;;;;;2.50;2.00;;;;;;;;5056292;28;45741;-72
2022/10/26 01:11:14;;;;;;;;;1.75;1.75;;;;;;;;5057453;28;45714;-72
2022/10/26 01:13:41;;;;;;;;;1.75;1.75;;;;;;;;5057199;28;45341;-72
2022/10/26 01:16:09;;;;;;;;;2.75;1.50;;;;;;;;5062191;28;45896;-72
2022/10/26 01:18:48;;;;;;;;;1.75;1.50;;;;;;;;5060328;28;45464;-72
2022/10/26 01:21:26;;;;;;;;;1.00;1.00;;;;;;;;5059099;28;45655;-73
2022/10/26 01:24:07;;;;;;;;;1.75;0.75;;;;;;;;5062661;28;48563;-73
2022/10/26 01:26:44;;;;;;;;;1.75;1.75;;;;;;;;5063603;28;46545;-73
2022/10/26 01:29:09;;;;;;;;;1.25;0.50;;;;;;;;5057424;28;45422;-72
2022/10/26 01:31:39;;;;;;;;;0.00;0.00;;;;;;;;5058348;27;45542;-73
2022/10/26 01:34:08;;;;;;;;;1.75;1.75;;;;;;;;5062727;28;45435;-72
2022/10/26 01:36:43;;;;;;;;;1.75;1.75;;;;;;;;5053833;28;46267;-72
2022/10/26 01:39:15;;;;;;;;;2.25;0.25;;;;;;;;5056831;28;45409;-72
2022/10/26 01:41:40;;;;;;;;;1.25;1.25;;;;;;;;5052607;28;45706;-72
2022/10/26 01:44:12;;;;;;;;;3.00;1.75;;;;;;;;5062321;28;45789;-72
2022/10/26 01:46:40;;;;;;;;;2.75;1.75;;;;;;;;5056698;28;45483;-72
2022/10/26 01:49:08;;;;;;;;;1.75;1.75;;;;;;;;5059610;28;45478;-73
2022/10/26 01:51:34;;;;;;;;;1.75;1.75;;;;;;;;5038410;28;45503;-73
2022/10/26 01:53:59;;;;;;;;;3.50;0.75;;;;;;;;5038377;28;45407;-73
2022/10/26 01:56:27;;;;;;;;;2.25;0.75;;;;;;;;5045362;28;45598;-72
2022/10/26 01:59:02;;;;;;;;;1.00;1.00;;;;;;;;5054451;28;45478;-72
2022/10/26 02:01:43;;;;;;;;;0.75;0.75;;;;;;;;5058248;28;45388;-73
2022/10/26 02:04:08;;;;;;;;;1.00;0.75;;;;;;;;5054664;28;45437;-74
2022/10/26 02:06:39;;;;;;;;;2.00;1.00;;;;;;;;5057106;28;45275;-73
2022/10/26 02:09:23;;;;;;;;;0.75;0.75;;;;;;;;5058063;28;45367;-73
2022/10/26 02:11:50;;;;;;;;;1.00;1.00;;;;;;;;5046400;28;45374;-73
2022/10/26 02:14:18;;;;;;;;;1.25;1.00;;;;;;;;5056419;28;45652;-74
2022/10/26 02:16:46;;;;;;;;;1.50;0.75;;;;;;;;5057991;28;46443;-73
2022/10/26 02:19:22;;;;;;;;;2.00;0.25;;;;;;;;5056064;28;45437;-74
2022/10/26 02:21:48;;;;;;;;;2.75;1.75;;;;;;;;5058012;28;45456;-73
2022/10/26 02:24:15;;;;;;;;;0.75;0.75;;;;;;;;5058244;28;45321;-73
2022/10/26 02:26:42;;;;;;;;;1.00;0.75;;;;;;;;5040740;28;46693;-73
2022/10/26 02:29:11;;;;;;;;;2.00;1.00;;;;;;;;5037646;28;45391;-73
2022/10/26 02:31:37;;;;;;;;;0.75;0.75;;;;;;;;5037719;28;45273;-73
2022/10/26 02:34:05;;;;;;;;;0.00;0.00;;;;;;;;5051903;28;45576;-73
2022/10/26 02:36:33;;;;;;;;;0.75;0.75;;;;;;;;5056540;28;46561;-72
2022/10/26 02:39:00;;;;;;;;;1.00;1.00;;;;;;;;5057585;28;45319;-72
2022/10/26 02:41:27;;;;;;;;;2.25;2.25;;;;;;;;5038018;28;45477;-72
2022/10/26 02:43:56;;;;;;;;;1.00;1.00;;;;;;;;5038977;28;45523;-72
2022/10/26 02:46:23;;;;;;;;;2.00;1.75;;;;;;;;5036794;28;45762;-73
2022/10/26 02:48:49;;;;;;;;;1.25;1.25;;;;;;;;5037146;28;45465;-73
2022/10/26 02:51:23;;;;;;;;;2.00;1.00;;;;;;;;5037650;28;45265;-72
2022/10/26 02:53:52;;;;;;;;;1.75;1.75;;;;;;;;5036065;28;45304;-74
2022/10/26 02:56:20;;;;;;;;;3.00;1.25;;;;;;;;5037141;28;46496;-73
2022/10/26 02:58:49;;;;;;;;;1.75;0.75;;;;;;;;5045141;28;45326;-74
2022/10/26 03:01:14;;;;;;;;;3.00;3.00;;;;;;;;5049489;28;45419;-73
2022/10/26 03:03:39;;;;;;;;;1.50;1.25;;;;;;;;5037327;28;45212;-73
2022/10/26 03:06:05;;;;;;;;;1.00;1.00;;;;;;;;5036984;28;45276;-68
2022/10/26 03:08:30;;;;;;;;;2.25;1.75;;;;;;;;5043653;28;45236;-76
2022/10/26 03:10:56;;;;;;;;;3.00;1.25;;;;;;;;5057961;28;45436;-74
2022/10/26 03:13:22;;;;;;;;;2.00;2.00;;;;;;;;5057695;28;45351;-76
2022/10/26 03:15:47;;;;;;;;;2.00;2.00;;;;;;;;5050565;28;46544;-77
2022/10/26 03:18:12;;;;;;;;;3.00;1.50;;;;;;;;5037181;28;45245;-75
2022/10/26 03:20:37;;;;;;;;;1.75;1.75;;;;;;;;5037188;28;45412;-75
2022/10/26 03:23:02;;;;;;;;;1.50;1.50;;;;;;;;5037479;28;45426;-76
2022/10/26 03:25:28;;;;;;;;;0.75;0.75;;;;;;;;5045711;28;45497;-76
2022/10/26 03:27:57;;;;;;;;;2.25;2.25;;;;;;;;5037237;28;45291;-75
2022/10/26 03:30:22;;;;;;;;;1.25;1.25;;;;;;;;5037423;28;45320;-77
2022/10/26 03:32:47;;;;;;;;;1.00;1.00;;;;;;;;5037689;28;45408;-77
2022/10/26 03:35:12;;;;;;;;;1.50;1.50;;;;;;;;5036926;28;46442;-78
2022/10/26 03:37:38;;;;;;;;;3.50;0.75;;;;;;;;5053618;28;45424;-77
2022/10/26 03:40:03;;;;;;;;;0.25;0.25;;;;;;;;5054925;28;45420;-75
2022/10/26 03:42:32;;;;;;;;;2.75;2.00;;;;;;;;5057147;28;45249;-75
2022/10/26 03:44:57;;;;;;;;;1.75;1.75;;;;;;;;5056171;28;47362;-77
2022/10/26 03:47:22;;;;;;;;;3.50;2.00;;;;;;;;5055344;28;45484;-73
2022/10/26 03:49:47;;;;;;;;;1.00;0.50;;;;;;;;5056801;28;45325;-75
2022/10/26 03:52:13;;;;;;;;;2.75;0.75;;;;;;;;5037790;28;45292;-74
2022/10/26 03:54:38;;;;;;;;;1.75;1.75;;;;;;;;5036800;28;45381;-76
2022/10/26 03:57:03;;;;;;;;;1.50;1.50;;;;;;;;5036900;28;45317;-74
2022/10/26 03:59:28;;;;;;;;;1.25;1.00;;;;;;;;5047793;28;46187;-74
2022/10/26 04:01:53;;;;;;;;;2.75;2.75;;;;;;;;5053801;28;45355;-72
2022/10/26 04:04:19;;;;;;;;;1.75;1.75;;;;;;;;5037881;28;45637;-70
2022/10/26 04:06:44;;;;;;;;;3.00;1.25;;;;;;;;5039798;28;45337;-72
2022/10/26 04:09:09;;;;;;;;;2.75;2.75;;;;;;;;5047824;28;45317;-72
2022/10/26 04:11:34;;;;;;;;;4.00;1.00;;;;;;;;5060271;28;45349;-71
2022/10/26 04:14:00;;;;;;;;;1.25;1.25;;;;;;;;5058551;28;46381;-71
2022/10/26 04:16:25;;;;;;;;;4.50;3.00;;;;;;;;5058899;28;45306;-78
2022/10/26 04:18:50;;;;;;;;;14.33;14.33;;;;;;;;5052253;28;45592;-76
2022/10/26 04:21:16;;;;;;;;;3.75;3.00;;;;;;;;5040044;28;45354;-69
2022/10/26 04:23:41;;;;;;;;;1.75;1.75;;;;;;;;5039524;28;45341;-73
2022/10/26 04:26:06;;;;;;;;;3.75;2.00;;;;;;;;5045763;28;45478;-74
2022/10/26 04:28:32;;;;;;;;;4.00;2.25;;;;;;;;5060317;28;45263;-74
2022/10/26 04:30:57;;;;;;;;;2.75;2.75;;;;;;;;5058668;28;45320;-73
2022/10/26 04:33:22;;;;;;;;;4.75;1.75;;;;;;;;5045988;28;45360;-74
2022/10/26 04:35:47;;;;;;;;;4.00;3.00;;;;;;;;5059513;28;45416;-74
2022/10/26 04:38:12;;;;;;;;;6.25;3.75;;;;;;;;5058548;28;45475;-74
2022/10/26 04:40:38;;;;;;;;;6.50;2.75;;;;;;;;5058506;28;45493;-72
2022/10/26 04:43:03;;;;;;;;;2.00;2.00;;;;;;;;5059754;28;45248;-73
2022/10/26 04:45:29;;;;;;;;;3.00;2.50;;;;;;;;5059406;28;45430;-73
2022/10/26 04:48:01;;;;;;;;;3.50;2.00;;;;;;;;5043338;28;45415;-72
2022/10/26 04:50:27;;;;;;;;;1.75;1.75;;;;;;;;5039335;28;45267;-73
2022/10/26 04:52:52;;;;;;;;;9.75;7.25;;;;;;;;5043255;28;45412;-72
2022/10/26 04:55:17;;;;;;;;;2.75;2.25;;;;;;;;5059284;28;45247;-72
2022/10/26 04:57:43;;;;;;;;;3.00;3.00;;;;;;;;5059353;28;45254;-75
2022/10/26 05:00:09;;;;;;;;;3.00;3.00;;;;;;;;5054214;28;45488;-73
2022/10/26 05:02:34;;;;;;;;;3.00;3.00;;;;;;;;5042361;28;46511;-72
2022/10/26 05:04:59;;;;;;;;;3.50;3.50;;;;;;;;5038496;28;45229;-72
2022/10/26 05:07:24;;;;;;;;;4.50;2.00;;;;;;;;5039011;28;45238;-72
2022/10/26 05:09:49;;;;;;;;;3.00;2.75;;;;;;;;5041042;28;45253;-72
2022/10/26 05:12:15;;;;;;;;;1.75;1.75;;;;;;;;5051032;28;45464;-74
2022/10/26 05:14:40;;;;;;;;;3.50;3.00;;;;;;;;5041918;28;45484;-72
2022/10/26 05:17:05;;;;;;;;;3.00;3.00;;;;;;;;5058379;28;45237;-73
2022/10/26 05:19:30;;;;;;;;;3.25;2.75;;;;;;;;5059319;28;45383;-72
2022/10/26 05:21:56;;;;;;;;;4.00;3.00;;;;;;;;5055623;28;46630;-72
2022/10/26 05:24:21;;;;;;;;;4.25;4.25;;;;;;;;5037940;28;45474;-73
2022/10/26 05:26:46;;;;;;;;;2.75;2.75;;;;;;;;5042964;28;45391;-73
2022/10/26 05:29:11;;;;;;;;;3.50;2.75;;;;;;;;5057600;28;45604;-73
2022/10/26 05:31:36;;;;;;;;;4.00;4.00;;;;;;;;5039401;28;46160;-74
2022/10/26 05:34:02;;;;;;;;;2.75;2.75;;;;;;;;5038789;28;45414;-73
2022/10/26 05:36:27;;;;;;;;;3.75;3.75;;;;;;;;5038644;28;45442;-73
2022/10/26 05:38:52;;;;;;;;;4.00;4.00;;;;;;;;5043235;28;45730;-74
2022/10/26 05:41:17;;;;;;;;;3.00;3.00;;;;;;;;5058415;28;46329;-74
2022/10/26 05:43:42;;;;;;;;;3.75;3.50;;;;;;;;5058694;28;45344;-74
2022/10/26 05:46:08;;;;;;;;;16.33;16.00;;;;;;;;5054783;28;45276;-74
2022/10/26 05:48:33;;;;;;;;;11.00;11.00;;;;;;;;5058751;28;45328;-74
2022/10/26 05:50:59;;;;;;;;;6.00;6.00;;;;;;;;5054565;28;47145;-74
2022/10/26 05:53:25;;;;;;;;;8.25;8.25;;;;;;;;5038241;28;45378;-74
2022/10/26 05:55:50;;;;;;;;;9.00;6.25;;;;;;;;5038254;28;45517;-74
2022/10/26 05:58:15;;;;;;;;;11.67;9.00;;;;;;;;5058672;28;45275;-73
2022/10/26 06:00:50;;;;;;;;;8.50;7.00;;;;;;;;5056735;28;45621;-74
2022/10/26 06:03:20;;;;;;;;;2.50;1.75;;;;;;;;5056812;28;45419;-74
2022/10/26 06:05:52;;;;;;;;;3.00;3.00;;;;;;;;5048759;28;45562;-74
2022/10/26 06:08:18;;;;;;;;;8.00;6.75;;;;;;;;5038506;28;45237;-73
2022/10/26 06:10:43;;;;;;;;;4.00;4.00;;;;;;;;5037918;28;46315;-73
2022/10/26 06:13:09;;;;;;;;;3.75;3.50;;;;;;;;5048503;28;45223;-73
2022/10/26 06:15:42;;;;;;;;;5.75;3.50;;;;;;;;5058020;28;45359;-73
2022/10/26 06:18:27;;;;;;;;;6.50;5.00;;;;;;;;5056026;28;45315;-73
2022/10/26 06:20:52;;;;;;;;;7.25;7.25;;;;;;;;5053050;28;47435;-72
2022/10/26 06:23:36;;;;;;;;;7.75;4.00;;;;;;;;5053185;28;45291;-74
2022/10/26 06:26:27;;;;;;;;;5.00;5.00;;;;;;;;5056688;28;45318;-73
2022/10/26 06:29:13;;;;;;;;;4.50;3.25;;;;;;;;5037105;28;45560;-75
2022/10/26 06:31:38;;;;;;;;;7.75;3.50;;;;;;;;5037266;28;46187;-74
2022/10/26 06:34:03;;;;;;;;;6.25;3.50;;;;;;;;5047583;28;45303;-75
2022/10/26 06:36:29;;;;;;;;;3.75;3.75;;;;;;;;5047737;28;45306;-75
2022/10/26 06:39:03;;;;;;;;;3.00;3.00;;;;;;;;5058006;28;45399;-75
2022/10/26 06:41:30;;;;;;;;;5.00;3.75;;;;;;;;5057248;28;45616;-73
2022/10/26 06:43:56;;;;;;;;;4.50;3.50;;;;;;;;5055580;28;45442;-73
2022/10/26 06:46:29;;;;;;;;;5.75;3.50;;;;;;;;5056638;28;45378;-73
2022/10/26 06:49:06;;;;;;;;;3.75;3.75;;;;;;;;5037848;28;45337;-72
2022/10/26 06:51:35;;;;;;;;;8.00;5.00;;;;;;;;5036815;28;46464;-72
2022/10/26 06:54:04;;;;;;;;;6.75;3.75;;;;;;;;5042467;28;45513;-74
2022/10/26 06:56:29;;;;;;;;;8.75;5.25;;;;;;;;5057310;28;45327;-71
2022/10/26 06:58:59;;;;;;;;;8.50;5.00;;;;;;;;5051347;28;45411;-75
2022/10/26 07:01:25;;;;;;;;;5.50;5.50;;;;;;;;5047633;28;45520;-73
2022/10/26 07:03:50;;;;;;;;;6.50;6.00;;;;;;;;5049960;28;45308;-72
2022/10/26 07:06:15;;;;;;;;;5.75;4.00;;;;;;;;5037042;28;45351;-71
2022/10/26 07:08:40;;;;;;;;;4.50;4.50;;;;;;;;5037238;28;45416;-69
2022/10/26 07:11:05;;;;;;;;;3.25;3.25;;;;;;;;5042817;28;47124;-70
2022/10/26 07:13:31;;;;;;;;;4.25;4.25;;;;;;;;5057010;28;45225;-72
2022/10/26 07:15:56;;;;;;;;;8.75;6.50;;;;;;;;5053606;28;45472;-73
2022/10/26 07:18:21;;;;;;;;;6.00;6.00;;;;;;;;5056314;28;45196;-72
2022/10/26 07:20:46;;;;;;;;;6.00;6.00;;;;;;;;5056781;28;45584;-72
2022/10/26 07:23:11;;;;;;;;;7.25;5.00;;;;;;;;5057039;28;45284;-72
2022/10/26 07:25:39;;;;;;;;;5.25;4.00;;;;;;;;5057158;28;45149;-68
2022/10/26 07:28:04;;;;;;;;;9.50;7.50;;;;;;;;5052393;28;45454;-69
2022/10/26 07:30:29;;;;;;;;;8.33;8.33;;;;;;;;5056014;28;45525;-71
2022/10/26 07:32:58;;;;;;;;;4.75;4.75;;;;;;;;5057077;28;45410;-70
2022/10/26 07:35:23;;;;;;;;;6.75;4.75;;;;;;;;5055118;28;45560;-70
2022/10/26 07:37:48;;;;;;;;;12.33;11.33;;;;;;;;5052872;28;45319;-70
2022/10/26 07:40:14;;;;;;;;;8.00;4.50;;;;;;;;5039429;28;45626;-69
2022/10/26 07:42:39;;;;;;;;;9.75;4.75;;;;;;;;5040044;28;45372;-70
2022/10/26 07:45:04;;;;;;;;;7.25;5.00;;;;;;;;5039323;28;45333;-72
2022/10/26 07:47:30;;;;;;;;;21.67;20.33;;;;;;;;5042361;28;45352;-72
2022/10/26 07:49:55;;;;;;;;;6.25;4.00;;;;;;;;5039989;28;45388;-71
2022/10/26 07:52:20;;;;;;;;;7.00;5.00;;;;;;;;5039261;28;45394;-70
2022/10/26 07:54:45;;;;;;;;;6.75;6.25;;;;;;;;5052658;28;45519;-72
2022/10/26 07:57:10;;;;;;;;;3.50;3.50;;;;;;;;5054147;28;45847;-71
2022/10/26 07:59:35;;;;;;;;;4.25;4.00;;;;;;;;5057922;28;46201;-71
2022/10/26 08:02:01;;;;;;;;;9.50;6.75;;;;;;;;5057872;28;45335;-72
2022/10/26 08:04:26;;;;;;;;;4.50;3.50;;;;;;;;5055997;28;45402;-81
2022/10/26 08:06:52;;;;;;;;;5.75;4.00;;;;;;;;5054344;28;45727;-74
2022/10/26 08:09:17;;;;;;;;;4.75;4.75;;;;;;;;5055969;28;47156;-72
2022/10/26 08:11:42;;;;;;;;;10.00;5.00;;;;;;;;5057802;28;45323;-71
2022/10/26 08:14:09;;;;;;;;;4.50;4.50;;;;;;;;5054308;28;45403;-72
2022/10/26 08:16:34;;;;;;;;;3.75;3.25;;;;;;;;5053835;28;45736;-70
2022/10/26 08:19:00;;;;;;;;;3.50;3.50;;;;;;;;5052122;28;46197;-71
2022/10/26 08:21:25;;;;;;;;;6.75;6.75;;;;;;;;5057123;28;45732;-72
2022/10/26 08:23:50;;;;;;;;;6.75;5.25;;;;;;;;5053192;28;45519;-71
2022/10/26 08:26:17;;;;;;;;;7.00;4.25;;;;;;;;5054101;28;46081;-72
2022/10/26 08:28:42;;;;;;;;;18.33;13.00;;;;;;;;5058590;28;47357;-72
2022/10/26 08:31:07;;;;;;;;;5.25;4.00;;;;;;;;5047623;28;45499;-72
2022/10/26 08:33:33;;;;;;;;;5.25;3.75;;;;;;;;5054635;28;45439;-73
2022/10/26 08:35:59;;;;;;;;;4.00;3.75;;;;;;;;5051876;28;46046;-73
2022/10/26 08:38:24;;;;;;;;;4.25;4.00;;;;;;;;5053377;28;46402;-73
2022/10/26 08:40:50;;;;;;;;;4.00;2.75;;;;;;;;5049655;28;45799;-76
2022/10/26 08:43:16;;;;;;;;;4.00;3.00;;;;;;;;5053451;28;45449;-76
2022/10/26 08:45:46;;;;;;;;;2.00;2.00;;;;;;;;5052888;28;45570;-73
2022/10/26 08:48:14;;;;;;;;;3.75;3.25;;;;;;;;5054346;28;45465;-75
2022/10/26 08:50:49;;;;;;;;;5.00;2.75;;;;;;;;5046076;28;45296;-76
2022/10/26 08:53:34;;;;;;;;;7.75;6.25;;;;;;;;5056133;28;45340;-78
2022/10/26 08:56:02;;;;;;;;;3.00;2.00;;;;;;;;5056988;28;45450;-77
2022/10/26 08:58:30;;;;;;;;;2.00;2.00;;;;;;;;5055705;28;46595;-76
2022/10/26 09:00:57;;;;;;;;;2.25;2.25;;;;;;;;5057341;28;45321;-76
2022/10/26 09:03:23;;;;;;;;;10.00;6.00;;;;;;;;5057509;28;45425;-76
2022/10/26 09:06:03;;;;;;;;;3.00;2.00;;;;;;;;5057538;28;45990;-75
2022/10/26 09:08:37;;;;;;;;;4.25;4.00;;;;;;;;5046000;28;45543;-76
2022/10/26 09:11:06;;;;;;;;;6.00;4.75;;;;;;;;5037952;28;45509;-77
2022/10/26 09:13:43;;;;;;;;;6.50;6.50;;;;;;;;5055859;28;45670;-74
2022/10/26 09:16:17;;;;;;;;;3.50;3.50;;;;;;;;5057340;28;45339;-76
2022/10/26 09:19:00;;;;;;;;;2.00;2.00;;;;;;;;5056757;28;45531;-75
2022/10/26 09:21:25;;;;;;;;;8.00;6.25;;;;;;;;5055541;28;45373;-76
2022/10/26 09:23:57;;;;;;;;;6.00;3.75;;;;;;;;5057014;28;45667;-75
2022/10/26 09:26:55;;;;;;;;;3.75;3.25;;;;;;;;5048907;28;45604;-77
2022/10/26 09:29:24;;;;;;;;;6.50;3.25;;;;;;;;5028163;28;45642;-77
2022/10/26 09:31:50;;;;;;;;;4.25;2.00;;;;;;;;5034693;28;45356;-75
2022/10/26 09:34:19;;;;;;;;;13.25;12.00;;;;;;;;5030945;28;45880;-75
2022/10/26 09:36:44;;;;;;;;;4.25;2.00;;;;;;;;5030125;28;45508;-75
2022/10/26 09:39:16;;;;;;;;;3.50;2.25;;;;;;;;5030140;28;45480;-76
2022/10/26 09:41:45;;;;;;;;;3.75;2.75;;;;;;;;5033254;28;45863;-76
2022/10/26 09:44:26;;;;;;;;;3.75;2.00;;;;;;;;5033171;28;45444;-74
2022/10/26 09:46:54;;;;;;;;;2.00;2.00;;;;;;;;5034424;28;45424;-74
2022/10/26 09:49:21;;;;;;;;;2.50;1.75;;;;;;;;5033137;28;45511;-73
2022/10/26 09:51:47;;;;;;;;;2.00;1.25;;;;;;;;5033916;28;45493;-74
2022/10/26 09:54:15;;;;;;;;;2.00;2.00;;;;;;;;5032571;28;45524;-74
2022/10/26 09:56:41;;;;;;;;;3.00;2.00;;;;;;;;5032777;28;45950;-74
2022/10/26 09:59:06;;;;;;;;;4.50;2.00;;;;;;;;5033512;28;46427;-73
2022/10/26 10:01:32;;;;;;;;;2.75;2.00;;;;;;;;5032394;28;45715;-73
2022/10/26 10:04:15;;;;;;;;;1.25;1.25;;;;;;;;5032611;28;45721;-73
2022/10/26 10:06:41;;;;;;;;;3.50;3.50;;;;;;;;5042879;28;45450;-74
2022/10/26 10:09:10;;;;;;;;;1.00;1.00;;;;;;;;5052444;28;46193;-75
2022/10/26 10:11:36;;;;;;;;;2.75;1.00;;;;;;;;5048606;28;45898;-75
2022/10/26 10:14:05;;;;;;;;;4.25;1.00;;;;;;;;5055379;28;45517;-73
2022/10/26 10:16:31;;;;;;;;;2.25;1.00;;;;;;;;5055754;28;45756;-74
2022/10/26 10:18:57;;;;;;;;;1.00;1.00;;;;;;;;5053553;28;45552;-74
2022/10/26 10:21:42;;;;;;;;;2.00;2.00;;;;;;;;5035314;28;45408;-73
2022/10/26 10:24:26;;;;;;;;;4.75;2.00;;;;;;;;5036476;28;45378;-73
2022/10/26 10:27:00;;;;;;;;;2.00;1.00;;;;;;;;5035597;28;45439;-73
2022/10/26 10:29:30;;;;;;;;;1.75;1.75;;;;;;;;5034624;28;46544;-68
2022/10/26 10:31:56;;;;;;;;;2.75;1.00;;;;;;;;5034784;28;45634;-68
2022/10/26 10:34:21;;;;;;;;;3.25;2.00;;;;;;;;5040132;28;45487;-68
2022/10/26 10:36:48;;;;;;;;;3.75;3.75;;;;;;;;5050609;28;45892;-73
2022/10/26 10:39:28;;;;;;;;;7.25;5.50;;;;;;;;5046329;28;45565;-73
2022/10/26 10:41:54;;;;;;;;;5.00;4.50;;;;;;;;5034211;28;45457;-74
2022/10/26 10:44:30;;;;;;;;;3.50;2.00;;;;;;;;5035181;28;45400;-69
2022/10/26 10:46:59;;;;;;;;;1.00;1.00;;;;;;;;5034945;28;45513;-73
2022/10/26 10:49:26;;;;;;;;;3.00;3.00;;;;;;;;5034610;28;46343;-70
2022/10/26 10:51:52;;;;;;;;;1.00;1.00;;;;;;;;5045518;28;45764;-69
2022/10/26 10:54:23;;;;;;;;;2.00;2.00;;;;;;;;5052497;28;45534;-70
2022/10/26 10:57:11;;;;;;;;;3.00;3.00;;;;;;;;5035174;28;45254;-70
2022/10/26 10:59:42;;;;;;;;;3.25;2.75;;;;;;;;5034953;28;46612;-72
2022/10/26 11:02:08;;;;;;;;;1.75;1.75;;;;;;;;5034209;28;45446;-73
2022/10/26 11:04:51;;;;;;;;;3.00;2.25;;;;;;;;5054338;28;45575;-71
2022/10/26 11:07:17;;;;;;;;;17.00;12.67;;;;;;;;5043832;28;45522;-72
2022/10/26 11:09:43;;;;;;;;;4.00;4.00;;;;;;;;5048174;28;47277;-72
2022/10/26 11:12:22;;;;;;;;;6.75;5.00;;;;;;;;5054770;28;45730;-73
2022/10/26 11:15:10;;;;;;;;;9.00;6.25;;;;;;;;5056881;28;45379;-72
2022/10/26 11:17:49;;;;;;;;;14.67;9.67;;;;;;;;5033800;28;45553;-73
2022/10/26 11:20:17;;;;;;;;;9.00;7.00;;;;;;;;5035737;28;46234;-72
2022/10/26 11:22:45;;;;;;;;;9.00;5.33;;;;;;;;5035989;28;46100;-72
2022/10/26 11:25:15;;;;;;;;;6.75;2.50;;;;;;;;5034721;28;46213;-71
2022/10/26 11:27:58;;;;;;;;;11.50;8.75;;;;;;;;5033399;28;45492;-72
2022/10/26 11:30:27;;;;;;;;;7.00;5.00;;;;;;;;5034561;28;46300;-72
2022/10/26 11:33:19;;;;;;;;;8.75;6.50;;;;;;;;5034780;28;45510;-72
2022/10/26 11:35:49;;;;;;;;;4.00;4.00;;;;;;;;5031204;28;45675;-72
2022/10/26 11:38:17;;;;;;;;;4.50;4.50;;;;;;;;5035412;28;45556;-73
2022/10/26 11:40:42;;;;;;;;;7.67;7.67;;;;;;;;5034611;28;46477;-72
2022/10/26 11:43:13;;;;;;;;;4.00;4.00;;;;;;;;5032172;28;45826;-71
2022/10/26 11:45:43;;;;;;;;;10.00;7.33;;;;;;;;5033077;28;45396;-72
2022/10/26 11:48:13;;;;;;;;;8.50;4.25;;;;;;;;5034642;28;45571;-72
2022/10/26 11:50:44;;;;;;;;;6.00;2.75;;;;;;;;5035509;28;46543;-68
2022/10/26 11:53:14;;;;;;;;;5.50;4.25;;;;;;;;5033554;28;45464;-73
2022/10/26 11:55:39;;;;;;;;;4.25;4.25;;;;;;;;5036749;28;45479;-71
2022/10/26 11:58:05;;;;;;;;;2.00;2.00;;;;;;;;5037297;28;45435;-70
2022/10/26 12:00:31;;;;;;;;;6.50;4.00;;;;;;;;5037024;28;46172;-71
2022/10/26 12:03:01;;;;;;;;;4.00;2.25;;;;;;;;5050715;28;45597;-68
2022/10/26 12:05:33;;;;;;;;;1.25;0.75;;;;;;;;5057019;28;45553;-70
2022/10/26 12:08:01;;;;;;;;;5.00;2.00;;;;;;;;5054155;28;45960;-70
2022/10/26 12:10:29;;;;;;;;;3.00;2.00;;;;;;;;5056873;28;45434;-71
2022/10/26 12:12:57;;;;;;;;;3.50;2.00;;;;;;;;5057029;28;45441;-71
2022/10/26 12:15:35;;;;;;;;;2.00;2.00;;;;;;;;5055171;28;45594;-71
2022/10/26 12:18:18;;;;;;;;;1.00;1.00;;;;;;;;5056125;28;45398;-70
2022/10/26 12:20:50;;;;;;;;;5.75;1.75;;;;;;;;5056978;28;45417;-70
2022/10/26 12:23:16;;;;;;;;;0.25;0.25;;;;;;;;5053257;28;45549;-70
2022/10/26 12:25:41;;;;;;;;;1.00;1.00;;;;;;;;5048101;28;45446;-72
2022/10/26 12:28:26;;;;;;;;;2.00;2.00;;;;;;;;5036843;28;45774;-71
2022/10/26 12:30:51;;;;;;;;;2.00;2.00;;;;;;;;5036519;28;46442;-71
2022/10/26 12:33:27;;;;;;;;;2.50;1.00;;;;;;;;5037354;28;45759;-71
2022/10/26 12:35:52;;;;;;;;;3.00;0.00;;;;;;;;5037348;28;45398;-70
2022/10/26 12:38:20;;;;;;;;;0.75;0.75;;;;;;;;5034720;28;45482;-71
2022/10/26 12:40:46;;;;;;;;;0.25;0.25;;;;;;;;5050551;28;45529;-70
2022/10/26 12:43:17;;;;;;;;;0.00;0.00;;;;;;;;5057096;28;45402;-70
2022/10/26 12:45:43;;;;;;;;;2.25;1.00;;;;;;;;5059451;28;45590;-69
2022/10/26 12:48:23;;;;;;;;;2.00;1.25;;;;;;;;5065739;28;45457;-69
2022/10/26 12:50:49;;;;;;;;;1.50;0.25;;;;;;;;5053629;28;47262;-71
2022/10/26 12:53:16;;;;;;;;;1.00;1.00;;;;;;;;5048443;28;46786;-70
2022/10/26 12:55:44;;;;;;;;;0.00;0.00;;;;;;;;5038329;28;45815;-69
2022/10/26 12:58:28;;;;;;;;;0.25;0.25;;;;;;;;5042477;28;45516;-70
2022/10/26 13:00:59;;;;;;;;;1.25;1.25;;;;;;;;5036243;28;46740;-70
2022/10/26 13:03:27;;;;;;;;;1.75;0.50;;;;;;;;5043872;28;45753;-70
2022/10/26 13:06:10;;;;;;;;;1.25;1.25;;;;;;;;5036725;28;45378;-70
2022/10/26 13:08:40;;;;;;;;;0.00;0.00;;;;;;;;5036447;28;45446;-71
2022/10/26 13:11:29;;;;;;;;;4.50;1.00;;;;;;;;5036933;28;46196;-71
2022/10/26 13:13:56;;;;;;;;;0.00;0.00;;;;;;;;5036459;28;45449;-71
2022/10/26 13:16:23;;;;;;;;;2.00;0.50;;;;;;;;5046885;28;45794;-70
2022/10/26 13:18:49;;;;;;;;;0.25;0.00;;;;;;;;5048311;28;45423;-71
2022/10/26 13:21:18;;;;;;;;;0.50;0.00;;;;;;;;5044425;28;46588;-71
2022/10/26 13:23:52;;;;;;;;;0.50;0.50;;;;;;;;5054993;27;45491;-70
2022/10/26 13:26:19;;;;;;;;;1.50;1.00;;;;;;;;5056171;28;45480;-70
2022/10/26 13:28:52;;;;;;;;;1.00;1.00;;;;;;;;5065422;28;45468;-72
2022/10/26 13:31:17;;;;;;;;;2.00;0.00;;;;;;;;5050173;28;46496;-71
2022/10/26 13:33:43;;;;;;;;;2.00;0.00;;;;;;;;5053119;28;45507;-72
2022/10/26 13:36:27;;;;;;;;;2.00;0.00;;;;;;;;5050798;28;45427;-75
2022/10/26 13:38:53;;;;;;;;;0.00;0.00;;;;;;;;5037185;28;45467;-72
2022/10/26 13:41:38;;;;;;;;;0.00;0.00;;;;;;;;5035227;28;46069;-71
2022/10/26 13:44:05;;;;;;;;;0.00;0.00;;;;;;;;5035814;28;45439;-72
2022/10/26 13:46:33;;;;;;;;;1.00;1.00;;;;;;;;5034872;28;45459;-68
2022/10/26 13:49:03;;;;;;;;;0.75;0.00;;;;;;;;5036378;28;45404;-70
2022/10/26 13:51:37;;;;;;;;;1.00;1.00;;;;;;;;5055644;28;45446;-71
2022/10/26 13:54:09;;;;;;;;;0.50;0.50;;;;;;;;5054866;28;45472;-69
2022/10/26 13:56:40;;;;;;;;;1.25;1.25;;;;;;;;5055932;28;45445;-71
2022/10/26 13:59:08;;;;;;;;;3.00;0.00;;;;;;;;5048578;28;45413;-72
2022/10/26 14:01:34;;;;;;;;;4.75;1.00;;;;;;;;5034607;28;46164;-72
2022/10/26 14:04:12;;;;;;;;;3.25;2.00;;;;;;;;5037787;28;45433;-71
2022/10/26 14:06:38;;;;;;;;;4.75;1.00;;;;;;;;5043755;28;45426;-72
2022/10/26 14:09:05;;;;;;;;;1.50;1.00;;;;;;;;5053877;28;45447;-71
2022/10/26 14:11:32;;;;;;;;;1.00;1.00;;;;;;;;5055147;28;45582;-71
2022/10/26 14:13:57;;;;;;;;;1.00;1.00;;;;;;;;5054076;27;45340;-69
2022/10/26 14:16:25;;;;;;;;;2.25;2.25;;;;;;;;5037969;27;45367;-71
2022/10/26 14:18:50;;;;;;;;;1.25;0.00;;;;;;;;5035824;28;45430;-70
2022/10/26 14:21:18;;;;;;;;;6.00;3.00;;;;;;;;5035463;28;46679;-70
2022/10/26 14:23:44;;;;;;;;;1.00;1.00;;;;;;;;5034420;28;45743;-69
2022/10/26 14:26:17;;;;;;;;;3.00;2.50;;;;;;;;5041694;28;45462;-70
2022/10/26 14:28:46;;;;;;;;;2.25;1.00;;;;;;;;5055317;28;45726;-71
2022/10/26 14:31:12;;;;;;;;;2.00;0.50;;;;;;;;5054210;28;45548;-72
2022/10/26 14:33:38;;;;;;;;;6.33;5.67;;;;;;;;5053820;28;45601;-74
2022/10/26 14:36:04;;;;;;;;;2.50;1.75;;;;;;;;5041106;28;45772;-74
2022/10/26 14:38:34;;;;;;;;;0.00;0.00;;;;;;;;5049159;28;45477;-72
2022/10/26 14:40:59;;;;;;;;;0.00;0.00;;;;;;;;5051265;28;46478;-74
2022/10/26 14:43:24;;;;;;;;;0.00;0.00;;;;;;;;5037503;28;45492;-72
2022/10/26 14:45:51;;;;;;;;;0.50;0.50;;;;;;;;5054644;28;45445;-70
2022/10/26 14:48:30;;;;;;;;;3.00;1.75;;;;;;;;5039772;28;46306;-72
2022/10/26 14:51:24;;;;;;;;;0.50;0.25;;;;;;;;5044919;28;46615;-72